sensor_id;sensor_type;location;lat;lon;timestamp;P1;durP1;ratioP1;P2;durP2;ratioP2
14052;SDS011;7101;51.600;7.310;2023-04-25T00:00:09;20.00;;;5.80;;
14052;SDS011;7101;51.600;7.310;2023-04-25T00:02:39;13.05;;;5.32;;
14052;SDS011;7101;51.600;7.310;2023-04-25T00:05:10;12.20;;;5.20;;
14052;SDS011;7101;51.600;7.310;2023-04-25T00:07:36;14.18;;;5.45;;
14052;SDS011;7101;51.600;7.310;2023-04-25T00:10:04;11.77;;;5.78;;
14052;SDS011;7101;51.600;7.310;2023-04-25T00:12:31;14.32;;;5.53;;
14052;SDS011;7101;51.600;7.310;2023-04-25T00:14:59;20.60;;;6.35;;
14052;SDS011;7101;51.600;7.310;2023-04-25T00:17:26;11.48;;;4.90;;
14052;SDS011;7101;51.600;7.310;2023-04-25T00:19:53;11.40;;;5.32;;
14052;SDS011;7101;51.600;7.310;2023-04-25T00:22:22;11.98;;;5.40;;
14052;SDS011;7101;51.600;7.310;2023-04-25T00:24:49;13.73;;;5.43;;
14052;SDS011;7101;51.600;7.310;2023-04-25T00:27:18;14.23;;;5.35;;
14052;SDS011;7101;51.600;7.310;2023-04-25T00:29:45;12.23;;;5.10;;
14052;SDS011;7101;51.600;7.310;2023-04-25T00:32:13;13.18;;;5.40;;
14052;SDS011;7101;51.600;7.310;2023-04-25T00:34:39;10.15;;;4.93;;
14052;SDS011;7101;51.600;7.310;2023-04-25T00:37:07;13.75;;;6.18;;
14052;SDS011;7101;51.600;7.310;2023-04-25T00:39:36;10.48;;;4.65;;
14052;SDS011;7101;51.600;7.310;2023-04-25T00:42:03;11.93;;;5.20;;
14052;SDS011;7101;51.600;7.310;2023-04-25T00:44:31;11.63;;;5.13;;
14052;SDS011;7101;51.600;7.310;2023-04-25T00:47:00;12.98;;;5.15;;
14052;SDS011;7101;51.600;7.310;2023-04-25T00:49:28;9.65;;;5.10;;
14052;SDS011;7101;51.600;7.310;2023-04-25T00:51:55;9.90;;;4.38;;
14052;SDS011;7101;51.600;7.310;2023-04-25T00:54:22;8.75;;;4.53;;
14052;SDS011;7101;51.600;7.310;2023-04-25T00:56:51;12.52;;;5.05;;
14052;SDS011;7101;51.600;7.310;2023-04-25T00:59:19;11.95;;;4.63;;
14052;SDS011;7101;51.600;7.310;2023-04-25T01:01:47;10.85;;;4.35;;
14052;SDS011;7101;51.600;7.310;2023-04-25T01:04:14;9.98;;;4.63;;
14052;SDS011;7101;51.600;7.310;2023-04-25T01:06:41;11.90;;;4.38;;
14052;SDS011;7101;51.600;7.310;2023-04-25T01:09:08;10.32;;;4.47;;
14052;SDS011;7101;51.600;7.310;2023-04-25T01:11:35;9.35;;;4.65;;
14052;SDS011;7101;51.600;7.310;2023-04-25T01:14:03;7.47;;;4.35;;
14052;SDS011;7101;51.600;7.310;2023-04-25T01:16:32;10.88;;;4.18;;
14052;SDS011;7101;51.600;7.310;2023-04-25T01:18:59;9.35;;;4.28;;
14052;SDS011;7101;51.600;7.310;2023-04-25T01:21:29;9.32;;;4.20;;
14052;SDS011;7101;51.600;7.310;2023-04-25T01:23:58;9.15;;;4.45;;
14052;SDS011;7101;51.600;7.310;2023-04-25T01:26:25;8.73;;;4.50;;
14052;SDS011;7101;51.600;7.310;2023-04-25T01:28:53;11.00;;;4.20;;
14052;SDS011;7101;51.600;7.310;2023-04-25T01:31:20;7.68;;;4.22;;
14052;SDS011;7101;51.600;7.310;2023-04-25T01:33:47;8.13;;;3.90;;
14052;SDS011;7101;51.600;7.310;2023-04-25T01:36:14;10.07;;;4.45;;
14052;SDS011;7101;51.600;7.310;2023-04-25T01:38:43;7.63;;;4.47;;
14052;SDS011;7101;51.600;7.310;2023-04-25T01:41:13;11.18;;;4.38;;
14052;SDS011;7101;51.600;7.310;2023-04-25T01:43:40;10.02;;;4.25;;
14052;SDS011;7101;51.600;7.310;2023-04-25T01:46:07;11.98;;;4.38;;
14052;SDS011;7101;51.600;7.310;2023-04-25T01:48:34;8.07;;;4.07;;
14052;SDS011;7101;51.600;7.310;2023-04-25T01:51:00;8.95;;;3.80;;
14052;SDS011;7101;51.600;7.310;2023-04-25T01:53:27;12.50;;;4.35;;
14052;SDS011;7101;51.600;7.310;2023-04-25T01:55:56;10.90;;;4.20;;
14052;SDS011;7101;51.600;7.310;2023-04-25T01:58:22;10.50;;;4.35;;
14052;SDS011;7101;51.600;7.310;2023-04-25T02:00:49;10.88;;;3.97;;
14052;SDS011;7101;51.600;7.310;2023-04-25T02:03:16;9.25;;;4.50;;
14052;SDS011;7101;51.600;7.310;2023-04-25T02:05:43;9.55;;;4.10;;
14052;SDS011;7101;51.600;7.310;2023-04-25T02:08:09;9.07;;;4.10;;
14052;SDS011;7101;51.600;7.310;2023-04-25T02:10:36;10.55;;;4.28;;
14052;SDS011;7101;51.600;7.310;2023-04-25T02:13:04;8.85;;;4.07;;
14052;SDS011;7101;51.600;7.310;2023-04-25T02:15:31;9.93;;;4.38;;
14052;SDS011;7101;51.600;7.310;2023-04-25T02:17:59;8.65;;;4.32;;
14052;SDS011;7101;51.600;7.310;2023-04-25T02:20:29;9.65;;;4.93;;
14052;SDS011;7101;51.600;7.310;2023-04-25T02:22:56;12.00;;;4.65;;
14052;SDS011;7101;51.600;7.310;2023-04-25T02:25:23;10.73;;;4.28;;
14052;SDS011;7101;51.600;7.310;2023-04-25T02:27:50;11.68;;;5.05;;
14052;SDS011;7101;51.600;7.310;2023-04-25T02:30:18;10.82;;;5.65;;
14052;SDS011;7101;51.600;7.310;2023-04-25T02:32:45;14.70;;;5.13;;
14052;SDS011;7101;51.600;7.310;2023-04-25T02:35:12;11.85;;;4.72;;
14052;SDS011;7101;51.600;7.310;2023-04-25T02:37:39;11.68;;;4.45;;
14052;SDS011;7101;51.600;7.310;2023-04-25T02:40:07;14.77;;;5.07;;
14052;SDS011;7101;51.600;7.310;2023-04-25T02:42:34;15.48;;;5.13;;
14052;SDS011;7101;51.600;7.310;2023-04-25T02:45:01;10.30;;;4.60;;
14052;SDS011;7101;51.600;7.310;2023-04-25T02:47:30;11.75;;;5.43;;
14052;SDS011;7101;51.600;7.310;2023-04-25T02:49:57;15.30;;;4.78;;
14052;SDS011;7101;51.600;7.310;2023-04-25T02:52:24;13.48;;;5.30;;
14052;SDS011;7101;51.600;7.310;2023-04-25T02:54:50;16.45;;;5.90;;
14052;SDS011;7101;51.600;7.310;2023-04-25T02:57:17;14.88;;;5.53;;
14052;SDS011;7101;51.600;7.310;2023-04-25T02:59:44;11.18;;;5.15;;
14052;SDS011;7101;51.600;7.310;2023-04-25T03:02:12;11.40;;;5.32;;
14052;SDS011;7101;51.600;7.310;2023-04-25T03:04:40;10.77;;;5.45;;
14052;SDS011;7101;51.600;7.310;2023-04-25T03:07:07;11.82;;;5.00;;
14052;SDS011;7101;51.600;7.310;2023-04-25T03:09:34;16.70;;;5.13;;
14052;SDS011;7101;51.600;7.310;2023-04-25T03:12:01;17.83;;;5.57;;
14052;SDS011;7101;51.600;7.310;2023-04-25T03:14:27;13.98;;;5.68;;
14052;SDS011;7101;51.600;7.310;2023-04-25T03:16:54;17.23;;;5.93;;
14052;SDS011;7101;51.600;7.310;2023-04-25T03:19:21;15.98;;;5.65;;
14052;SDS011;7101;51.600;7.310;2023-04-25T03:21:50;16.55;;;5.68;;
14052;SDS011;7101;51.600;7.310;2023-04-25T03:24:16;13.15;;;5.50;;
14052;SDS011;7101;51.600;7.310;2023-04-25T03:26:43;13.98;;;5.75;;
14052;SDS011;7101;51.600;7.310;2023-04-25T03:29:11;13.07;;;5.65;;
14052;SDS011;7101;51.600;7.310;2023-04-25T03:31:38;13.63;;;5.90;;
14052;SDS011;7101;51.600;7.310;2023-04-25T03:34:05;9.70;;;5.60;;
14052;SDS011;7101;51.600;7.310;2023-04-25T03:36:32;17.08;;;6.57;;
14052;SDS011;7101;51.600;7.310;2023-04-25T03:39:00;14.80;;;5.53;;
14052;SDS011;7101;51.600;7.310;2023-04-25T03:41:27;11.93;;;5.50;;
14052;SDS011;7101;51.600;7.310;2023-04-25T03:43:54;12.02;;;5.60;;
14052;SDS011;7101;51.600;7.310;2023-04-25T03:46:22;14.10;;;5.95;;
14052;SDS011;7101;51.600;7.310;2023-04-25T03:48:49;12.70;;;5.55;;
14052;SDS011;7101;51.600;7.310;2023-04-25T03:51:16;12.30;;;4.78;;
14052;SDS011;7101;51.600;7.310;2023-04-25T03:53:42;9.13;;;4.00;;
14052;SDS011;7101;51.600;7.310;2023-04-25T03:56:10;14.13;;;4.60;;
14052;SDS011;7101;51.600;7.310;2023-04-25T03:58:37;10.68;;;4.30;;
14052;SDS011;7101;51.600;7.310;2023-04-25T04:01:04;8.00;;;3.67;;
14052;SDS011;7101;51.600;7.310;2023-04-25T04:03:32;6.93;;;3.42;;
14052;SDS011;7101;51.600;7.310;2023-04-25T04:06:00;7.43;;;2.78;;
14052;SDS011;7101;51.600;7.310;2023-04-25T04:08:27;8.18;;;2.95;;
14052;SDS011;7101;51.600;7.310;2023-04-25T04:10:54;10.10;;;2.80;;
14052;SDS011;7101;51.600;7.310;2023-04-25T04:13:22;6.18;;;2.60;;
14052;SDS011;7101;51.600;7.310;2023-04-25T04:15:49;9.75;;;2.67;;
14052;SDS011;7101;51.600;7.310;2023-04-25T04:18:15;6.75;;;2.40;;
14052;SDS011;7101;51.600;7.310;2023-04-25T04:20:42;7.80;;;2.83;;
14052;SDS011;7101;51.600;7.310;2023-04-25T04:23:09;12.02;;;2.67;;
14052;SDS011;7101;51.600;7.310;2023-04-25T04:25:37;11.10;;;3.13;;
14052;SDS011;7101;51.600;7.310;2023-04-25T04:28:05;7.35;;;2.72;;
14052;SDS011;7101;51.600;7.310;2023-04-25T04:30:33;10.10;;;3.25;;
14052;SDS011;7101;51.600;7.310;2023-04-25T04:33:02;8.98;;;3.10;;
14052;SDS011;7101;51.600;7.310;2023-04-25T04:35:29;7.80;;;2.83;;
14052;SDS011;7101;51.600;7.310;2023-04-25T04:37:56;12.13;;;3.20;;
14052;SDS011;7101;51.600;7.310;2023-04-25T04:40:23;8.88;;;2.88;;
14052;SDS011;7101;51.600;7.310;2023-04-25T04:42:50;14.68;;;3.90;;
14052;SDS011;7101;51.600;7.310;2023-04-25T04:45:18;8.27;;;3.30;;
14052;SDS011;7101;51.600;7.310;2023-04-25T04:47:46;9.27;;;3.33;;
14052;SDS011;7101;51.600;7.310;2023-04-25T04:50:13;12.30;;;3.17;;
14052;SDS011;7101;51.600;7.310;2023-04-25T04:52:41;9.38;;;3.28;;
14052;SDS011;7101;51.600;7.310;2023-04-25T04:55:08;9.40;;;3.13;;
14052;SDS011;7101;51.600;7.310;2023-04-25T04:57:35;19.30;;;4.00;;
14052;SDS011;7101;51.600;7.310;2023-04-25T05:00:04;11.57;;;4.10;;
14052;SDS011;7101;51.600;7.310;2023-04-25T05:02:35;11.25;;;3.53;;
14052;SDS011;7101;51.600;7.310;2023-04-25T05:05:04;12.65;;;3.65;;
14052;SDS011;7101;51.600;7.310;2023-04-25T05:07:31;10.55;;;3.90;;
14052;SDS011;7101;51.600;7.310;2023-04-25T05:09:58;10.10;;;3.45;;
14052;SDS011;7101;51.600;7.310;2023-04-25T05:12:25;13.10;;;3.40;;
14052;SDS011;7101;51.600;7.310;2023-04-25T05:14:51;17.50;;;3.53;;
14052;SDS011;7101;51.600;7.310;2023-04-25T05:17:18;9.70;;;3.53;;
14052;SDS011;7101;51.600;7.310;2023-04-25T05:19:45;11.43;;;3.30;;
14052;SDS011;7101;51.600;7.310;2023-04-25T05:22:13;11.98;;;3.53;;
14052;SDS011;7101;51.600;7.310;2023-04-25T05:24:40;15.55;;;3.70;;
14052;SDS011;7101;51.600;7.310;2023-04-25T05:27:07;11.73;;;3.70;;
14052;SDS011;7101;51.600;7.310;2023-04-25T05:29:34;13.65;;;3.75;;
14052;SDS011;7101;51.600;7.310;2023-04-25T05:32:02;10.15;;;3.30;;
14052;SDS011;7101;51.600;7.310;2023-04-25T05:34:29;7.50;;;3.33;;
14052;SDS011;7101;51.600;7.310;2023-04-25T05:36:56;10.35;;;3.35;;
14052;SDS011;7101;51.600;7.310;2023-04-25T05:39:24;9.90;;;4.03;;
14052;SDS011;7101;51.600;7.310;2023-04-25T05:41:51;13.18;;;3.35;;
14052;SDS011;7101;51.600;7.310;2023-04-25T05:44:18;13.10;;;4.65;;
14052;SDS011;7101;51.600;7.310;2023-04-25T05:46:45;13.40;;;5.57;;
14052;SDS011;7101;51.600;7.310;2023-04-25T05:49:12;22.02;;;13.90;;
14052;SDS011;7101;51.600;7.310;2023-04-25T05:51:40;11.68;;;6.50;;
14052;SDS011;7101;51.600;7.310;2023-04-25T05:54:07;12.13;;;5.43;;
14052;SDS011;7101;51.600;7.310;2023-04-25T05:56:36;9.82;;;4.63;;
14052;SDS011;7101;51.600;7.310;2023-04-25T05:59:02;16.63;;;4.75;;
14052;SDS011;7101;51.600;7.310;2023-04-25T06:01:30;15.13;;;4.70;;
14052;SDS011;7101;51.600;7.310;2023-04-25T06:03:57;16.35;;;4.85;;
14052;SDS011;7101;51.600;7.310;2023-04-25T06:06:24;13.02;;;4.13;;
14052;SDS011;7101;51.600;7.310;2023-04-25T06:08:51;18.15;;;4.90;;
14052;SDS011;7101;51.600;7.310;2023-04-25T06:11:18;15.30;;;5.10;;
14052;SDS011;7101;51.600;7.310;2023-04-25T06:13:46;17.63;;;5.20;;
14052;SDS011;7101;51.600;7.310;2023-04-25T06:16:13;17.77;;;5.63;;
14052;SDS011;7101;51.600;7.310;2023-04-25T06:18:40;13.60;;;5.10;;
14052;SDS011;7101;51.600;7.310;2023-04-25T06:21:07;13.85;;;5.03;;
14052;SDS011;7101;51.600;7.310;2023-04-25T06:23:34;17.88;;;5.30;;
14052;SDS011;7101;51.600;7.310;2023-04-25T06:26:00;18.73;;;4.82;;
14052;SDS011;7101;51.600;7.310;2023-04-25T06:28:27;16.77;;;4.50;;
14052;SDS011;7101;51.600;7.310;2023-04-25T06:30:55;12.80;;;4.40;;
14052;SDS011;7101;51.600;7.310;2023-04-25T06:33:22;12.35;;;4.68;;
14052;SDS011;7101;51.600;7.310;2023-04-25T06:35:50;10.27;;;4.15;;
14052;SDS011;7101;51.600;7.310;2023-04-25T06:38:17;12.73;;;4.55;;
14052;SDS011;7101;51.600;7.310;2023-04-25T06:40:43;13.88;;;4.38;;
14052;SDS011;7101;51.600;7.310;2023-04-25T06:43:10;13.60;;;4.18;;
14052;SDS011;7101;51.600;7.310;2023-04-25T06:45:37;11.40;;;4.43;;
14052;SDS011;7101;51.600;7.310;2023-04-25T06:48:05;12.20;;;4.32;;
14052;SDS011;7101;51.600;7.310;2023-04-25T06:50:33;11.32;;;4.35;;
14052;SDS011;7101;51.600;7.310;2023-04-25T06:52:59;14.40;;;4.18;;
14052;SDS011;7101;51.600;7.310;2023-04-25T06:55:27;15.70;;;4.72;;
14052;SDS011;7101;51.600;7.310;2023-04-25T06:57:54;13.55;;;4.65;;
14052;SDS011;7101;51.600;7.310;2023-04-25T07:00:21;14.48;;;5.60;;
14052;SDS011;7101;51.600;7.310;2023-04-25T07:02:48;15.82;;;4.38;;
14052;SDS011;7101;51.600;7.310;2023-04-25T07:05:17;15.40;;;5.13;;
14052;SDS011;7101;51.600;7.310;2023-04-25T07:07:44;12.50;;;4.70;;
14052;SDS011;7101;51.600;7.310;2023-04-25T07:10:11;15.23;;;5.20;;
14052;SDS011;7101;51.600;7.310;2023-04-25T07:12:38;15.65;;;5.45;;
14052;SDS011;7101;51.600;7.310;2023-04-25T07:15:07;14.95;;;5.00;;
14052;SDS011;7101;51.600;7.310;2023-04-25T07:17:35;16.48;;;5.43;;
14052;SDS011;7101;51.600;7.310;2023-04-25T07:20:03;12.00;;;4.80;;
14052;SDS011;7101;51.600;7.310;2023-04-25T07:22:33;17.58;;;5.80;;
14052;SDS011;7101;51.600;7.310;2023-04-25T07:25:00;16.77;;;5.80;;
14052;SDS011;7101;51.600;7.310;2023-04-25T07:27:27;17.13;;;5.18;;
14052;SDS011;7101;51.600;7.310;2023-04-25T07:29:54;13.85;;;4.40;;
14052;SDS011;7101;51.600;7.310;2023-04-25T07:32:23;13.85;;;4.25;;
14052;SDS011;7101;51.600;7.310;2023-04-25T07:34:51;14.23;;;4.07;;
14052;SDS011;7101;51.600;7.310;2023-04-25T07:37:19;16.75;;;4.15;;
14052;SDS011;7101;51.600;7.310;2023-04-25T07:39:48;9.40;;;3.45;;
14052;SDS011;7101;51.600;7.310;2023-04-25T07:42:16;15.13;;;3.95;;
14052;SDS011;7101;51.600;7.310;2023-04-25T07:44:43;13.27;;;3.78;;
14052;SDS011;7101;51.600;7.310;2023-04-25T07:47:10;12.18;;;3.10;;
14052;SDS011;7101;51.600;7.310;2023-04-25T07:49:38;12.52;;;3.35;;
14052;SDS011;7101;51.600;7.310;2023-04-25T07:52:05;9.40;;;2.90;;
14052;SDS011;7101;51.600;7.310;2023-04-25T07:54:32;9.77;;;3.17;;
14052;SDS011;7101;51.600;7.310;2023-04-25T07:57:00;12.10;;;3.05;;
14052;SDS011;7101;51.600;7.310;2023-04-25T07:59:28;9.90;;;3.30;;
14052;SDS011;7101;51.600;7.310;2023-04-25T08:01:55;10.40;;;3.10;;
14052;SDS011;7101;51.600;7.310;2023-04-25T08:04:22;9.68;;;3.50;;
14052;SDS011;7101;51.600;7.310;2023-04-25T08:06:50;13.07;;;2.92;;
14052;SDS011;7101;51.600;7.310;2023-04-25T08:09:17;12.88;;;3.63;;
14052;SDS011;7101;51.600;7.310;2023-04-25T08:11:44;13.68;;;3.10;;
14052;SDS011;7101;51.600;7.310;2023-04-25T08:14:12;10.35;;;3.42;;
14052;SDS011;7101;51.600;7.310;2023-04-25T08:16:39;9.45;;;2.95;;
14052;SDS011;7101;51.600;7.310;2023-04-25T08:19:09;9.30;;;2.88;;
14052;SDS011;7101;51.600;7.310;2023-04-25T08:21:36;9.60;;;2.83;;
14052;SDS011;7101;51.600;7.310;2023-04-25T08:24:03;9.27;;;2.83;;
14052;SDS011;7101;51.600;7.310;2023-04-25T08:26:30;9.05;;;2.65;;
14052;SDS011;7101;51.600;7.310;2023-04-25T08:28:57;11.93;;;2.90;;
14052;SDS011;7101;51.600;7.310;2023-04-25T08:31:26;13.73;;;3.00;;
14052;SDS011;7101;51.600;7.310;2023-04-25T08:33:53;9.25;;;2.78;;
14052;SDS011;7101;51.600;7.310;2023-04-25T08:36:20;10.63;;;3.22;;
14052;SDS011;7101;51.600;7.310;2023-04-25T08:38:47;8.30;;;3.00;;
14052;SDS011;7101;51.600;7.310;2023-04-25T08:41:16;8.95;;;2.63;;
14052;SDS011;7101;51.600;7.310;2023-04-25T08:43:44;15.00;;;3.42;;
14052;SDS011;7101;51.600;7.310;2023-04-25T08:46:13;7.80;;;2.65;;
14052;SDS011;7101;51.600;7.310;2023-04-25T08:48:46;12.13;;;3.30;;
14052;SDS011;7101;51.600;7.310;2023-04-25T08:51:15;10.98;;;2.50;;
14052;SDS011;7101;51.600;7.310;2023-04-25T08:53:50;7.72;;;2.47;;
14052;SDS011;7101;51.600;7.310;2023-04-25T08:56:18;11.00;;;3.80;;
14052;SDS011;7101;51.600;7.310;2023-04-25T08:58:49;12.70;;;5.20;;
14052;SDS011;7101;51.600;7.310;2023-04-25T09:01:16;22.65;;;8.65;;
14052;SDS011;7101;51.600;7.310;2023-04-25T09:03:43;15.30;;;5.88;;
14052;SDS011;7101;51.600;7.310;2023-04-25T09:06:14;19.67;;;8.00;;
14052;SDS011;7101;51.600;7.310;2023-04-25T09:08:42;10.43;;;2.42;;
14052;SDS011;7101;51.600;7.310;2023-04-25T09:11:10;8.10;;;2.72;;
14052;SDS011;7101;51.600;7.310;2023-04-25T09:13:39;7.78;;;3.03;;
14052;SDS011;7101;51.600;7.310;2023-04-25T09:16:07;10.20;;;2.78;;
14052;SDS011;7101;51.600;7.310;2023-04-25T09:18:34;7.88;;;2.22;;
14052;SDS011;7101;51.600;7.310;2023-04-25T09:21:06;7.85;;;2.47;;
14052;SDS011;7101;51.600;7.310;2023-04-25T09:23:38;11.63;;;2.75;;
14052;SDS011;7101;51.600;7.310;2023-04-25T09:26:07;20.60;;;3.67;;
14052;SDS011;7101;51.600;7.310;2023-04-25T09:28:34;13.38;;;2.58;;
14052;SDS011;7101;51.600;7.310;2023-04-25T09:31:03;9.23;;;2.70;;
14052;SDS011;7101;51.600;7.310;2023-04-25T09:33:31;11.02;;;2.60;;
14052;SDS011;7101;51.600;7.310;2023-04-25T09:36:01;10.85;;;2.50;;
14052;SDS011;7101;51.600;7.310;2023-04-25T09:38:31;6.97;;;2.28;;
14052;SDS011;7101;51.600;7.310;2023-04-25T09:40:58;10.25;;;2.63;;
14052;SDS011;7101;51.600;7.310;2023-04-25T09:43:27;12.38;;;2.10;;
14052;SDS011;7101;51.600;7.310;2023-04-25T09:45:54;6.63;;;2.30;;
14052;SDS011;7101;51.600;7.310;2023-04-25T09:48:24;8.57;;;2.35;;
14052;SDS011;7101;51.600;7.310;2023-04-25T09:51:06;5.95;;;1.80;;
14052;SDS011;7101;51.600;7.310;2023-04-25T09:53:36;7.85;;;2.67;;
14052;SDS011;7101;51.600;7.310;2023-04-25T09:56:05;7.68;;;1.85;;
14052;SDS011;7101;51.600;7.310;2023-04-25T09:58:33;4.68;;;1.63;;
14052;SDS011;7101;51.600;7.310;2023-04-25T10:01:05;6.97;;;1.73;;
14052;SDS011;7101;51.600;7.310;2023-04-25T10:03:33;8.65;;;2.20;;
14052;SDS011;7101;51.600;7.310;2023-04-25T10:06:03;9.27;;;2.05;;
14052;SDS011;7101;51.600;7.310;2023-04-25T10:08:36;6.85;;;2.05;;
14052;SDS011;7101;51.600;7.310;2023-04-25T10:11:05;7.05;;;2.05;;
14052;SDS011;7101;51.600;7.310;2023-04-25T10:13:33;4.18;;;1.95;;
14052;SDS011;7101;51.600;7.310;2023-04-25T10:16:02;7.15;;;1.92;;
14052;SDS011;7101;51.600;7.310;2023-04-25T10:18:47;6.03;;;1.70;;
14052;SDS011;7101;51.600;7.310;2023-04-25T10:21:16;4.78;;;2.00;;
14052;SDS011;7101;51.600;7.310;2023-04-25T10:23:46;5.97;;;1.85;;
14052;SDS011;7101;51.600;7.310;2023-04-25T10:26:14;11.75;;;2.08;;
14052;SDS011;7101;51.600;7.310;2023-04-25T10:28:55;6.72;;;2.08;;
14052;SDS011;7101;51.600;7.310;2023-04-25T10:31:23;8.45;;;1.63;;
14052;SDS011;7101;51.600;7.310;2023-04-25T10:33:50;7.55;;;1.90;;
14052;SDS011;7101;51.600;7.310;2023-04-25T10:36:18;4.57;;;1.60;;
14052;SDS011;7101;51.600;7.310;2023-04-25T10:38:49;5.53;;;1.75;;
14052;SDS011;7101;51.600;7.310;2023-04-25T10:41:18;4.38;;;1.77;;
14052;SDS011;7101;51.600;7.310;2023-04-25T10:43:46;5.28;;;1.88;;
14052;SDS011;7101;51.600;7.310;2023-04-25T10:46:17;5.38;;;1.63;;
14052;SDS011;7101;51.600;7.310;2023-04-25T10:48:46;5.25;;;1.90;;
14052;SDS011;7101;51.600;7.310;2023-04-25T10:51:19;8.30;;;2.10;;
14052;SDS011;7101;51.600;7.310;2023-04-25T10:53:56;6.97;;;2.00;;
14052;SDS011;7101;51.600;7.310;2023-04-25T10:56:25;7.47;;;1.92;;
14052;SDS011;7101;51.600;7.310;2023-04-25T10:59:02;5.32;;;1.80;;
14052;SDS011;7101;51.600;7.310;2023-04-25T11:01:35;7.53;;;2.10;;
14052;SDS011;7101;51.600;7.310;2023-04-25T11:04:04;10.90;;;2.08;;
14052;SDS011;7101;51.600;7.310;2023-04-25T11:06:34;6.00;;;2.08;;
14052;SDS011;7101;51.600;7.310;2023-04-25T11:09:13;7.30;;;2.50;;
14052;SDS011;7101;51.600;7.310;2023-04-25T11:11:40;8.40;;;2.15;;
14052;SDS011;7101;51.600;7.310;2023-04-25T11:14:07;8.65;;;2.10;;
14052;SDS011;7101;51.600;7.310;2023-04-25T11:16:34;3.47;;;1.40;;
14052;SDS011;7101;51.600;7.310;2023-04-25T11:19:01;3.67;;;1.15;;
14052;SDS011;7101;51.600;7.310;2023-04-25T11:21:29;4.05;;;1.50;;
14052;SDS011;7101;51.600;7.310;2023-04-25T11:23:57;3.33;;;1.48;;
14052;SDS011;7101;51.600;7.310;2023-04-25T11:26:27;5.50;;;1.42;;
14052;SDS011;7101;51.600;7.310;2023-04-25T11:28:59;5.38;;;1.60;;
14052;SDS011;7101;51.600;7.310;2023-04-25T11:31:26;4.50;;;1.30;;
14052;SDS011;7101;51.600;7.310;2023-04-25T11:33:53;3.97;;;1.30;;
14052;SDS011;7101;51.600;7.310;2023-04-25T11:36:22;2.75;;;1.38;;
14052;SDS011;7101;51.600;7.310;2023-04-25T11:38:51;4.38;;;1.55;;
14052;SDS011;7101;51.600;7.310;2023-04-25T11:41:18;3.63;;;1.33;;
14052;SDS011;7101;51.600;7.310;2023-04-25T11:43:48;3.70;;;1.25;;
14052;SDS011;7101;51.600;7.310;2023-04-25T11:46:17;2.55;;;1.27;;
14052;SDS011;7101;51.600;7.310;2023-04-25T11:48:45;3.17;;;1.00;;
14052;SDS011;7101;51.600;7.310;2023-04-25T11:51:12;3.55;;;1.30;;
14052;SDS011;7101;51.600;7.310;2023-04-25T11:53:40;3.40;;;1.00;;
14052;SDS011;7101;51.600;7.310;2023-04-25T11:56:09;2.17;;;1.10;;
14052;SDS011;7101;51.600;7.310;2023-04-25T12:01:27;5.45;;;1.10;;
14052;SDS011;7101;51.600;7.310;2023-04-25T12:03:56;3.15;;;1.15;;
14052;SDS011;7101;51.600;7.310;2023-04-25T12:06:25;4.65;;;1.30;;
14052;SDS011;7101;51.600;7.310;2023-04-25T12:09:02;2.83;;;0.98;;
14052;SDS011;7101;51.600;7.310;2023-04-25T12:11:30;5.25;;;1.27;;
14052;SDS011;7101;51.600;7.310;2023-04-25T12:14:03;7.55;;;1.20;;
14052;SDS011;7101;51.600;7.310;2023-04-25T12:16:39;4.50;;;1.65;;
14052;SDS011;7101;51.600;7.310;2023-04-25T12:19:07;3.20;;;1.02;;
14052;SDS011;7101;51.600;7.310;2023-04-25T12:21:35;2.58;;;1.05;;
14052;SDS011;7101;51.600;7.310;2023-04-25T12:24:12;3.92;;;1.30;;
14052;SDS011;7101;51.600;7.310;2023-04-25T12:26:46;4.18;;;1.35;;
14052;SDS011;7101;51.600;7.310;2023-04-25T12:29:16;2.65;;;1.13;;
14052;SDS011;7101;51.600;7.310;2023-04-25T12:31:45;3.50;;;1.13;;
14052;SDS011;7101;51.600;7.310;2023-04-25T12:34:13;2.15;;;1.17;;
14052;SDS011;7101;51.600;7.310;2023-04-25T12:36:40;2.83;;;1.00;;
14052;SDS011;7101;51.600;7.310;2023-04-25T12:39:07;3.13;;;0.95;;
14052;SDS011;7101;51.600;7.310;2023-04-25T12:41:42;2.53;;;1.05;;
14052;SDS011;7101;51.600;7.310;2023-04-25T12:44:10;3.15;;;1.20;;
14052;SDS011;7101;51.600;7.310;2023-04-25T12:46:44;3.92;;;1.27;;
14052;SDS011;7101;51.600;7.310;2023-04-25T12:49:11;2.25;;;1.08;;
14052;SDS011;7101;51.600;7.310;2023-04-25T12:51:38;2.70;;;1.30;;
14052;SDS011;7101;51.600;7.310;2023-04-25T12:54:06;10.48;;;3.95;;
14052;SDS011;7101;51.600;7.310;2023-04-25T12:56:38;3.92;;;1.23;;
14052;SDS011;7101;51.600;7.310;2023-04-25T12:59:05;5.38;;;1.38;;
14052;SDS011;7101;51.600;7.310;2023-04-25T13:01:32;5.38;;;1.38;;
14052;SDS011;7101;51.600;7.310;2023-04-25T13:04:00;5.82;;;1.50;;
14052;SDS011;7101;51.600;7.310;2023-04-25T13:06:27;5.75;;;1.20;;
14052;SDS011;7101;51.600;7.310;2023-04-25T13:08:55;3.65;;;1.25;;
14052;SDS011;7101;51.600;7.310;2023-04-25T13:11:21;2.92;;;1.10;;
14052;SDS011;7101;51.600;7.310;2023-04-25T13:13:49;5.82;;;1.27;;
14052;SDS011;7101;51.600;7.310;2023-04-25T13:16:17;6.72;;;1.60;;
14052;SDS011;7101;51.600;7.310;2023-04-25T13:18:45;5.13;;;1.30;;
14052;SDS011;7101;51.600;7.310;2023-04-25T13:21:15;4.15;;;1.45;;
14052;SDS011;7101;51.600;7.310;2023-04-25T13:23:42;5.53;;;1.27;;
14052;SDS011;7101;51.600;7.310;2023-04-25T13:26:11;6.53;;;1.35;;
14052;SDS011;7101;51.600;7.310;2023-04-25T13:28:40;2.80;;;1.08;;
14052;SDS011;7101;51.600;7.310;2023-04-25T13:31:09;4.13;;;1.00;;
14052;SDS011;7101;51.600;7.310;2023-04-25T13:33:36;4.40;;;1.60;;
14052;SDS011;7101;51.600;7.310;2023-04-25T13:36:03;4.07;;;1.40;;
14052;SDS011;7101;51.600;7.310;2023-04-25T13:38:32;4.35;;;1.65;;
14052;SDS011;7101;51.600;7.310;2023-04-25T13:40:59;2.53;;;1.02;;
14052;SDS011;7101;51.600;7.310;2023-04-25T13:43:27;3.67;;;1.20;;
14052;SDS011;7101;51.600;7.310;2023-04-25T13:45:54;6.65;;;1.40;;
14052;SDS011;7101;51.600;7.310;2023-04-25T13:48:21;2.85;;;1.10;;
14052;SDS011;7101;51.600;7.310;2023-04-25T13:50:48;3.42;;;1.15;;
14052;SDS011;7101;51.600;7.310;2023-04-25T13:53:16;5.15;;;1.30;;
14052;SDS011;7101;51.600;7.310;2023-04-25T13:55:45;3.83;;;1.30;;
14052;SDS011;7101;51.600;7.310;2023-04-25T13:58:13;4.75;;;1.20;;
14052;SDS011;7101;51.600;7.310;2023-04-25T14:00:40;4.57;;;1.58;;
14052;SDS011;7101;51.600;7.310;2023-04-25T14:03:08;3.75;;;1.05;;
14052;SDS011;7101;51.600;7.310;2023-04-25T14:05:36;4.43;;;1.10;;
14052;SDS011;7101;51.600;7.310;2023-04-25T14:08:07;6.63;;;1.45;;
14052;SDS011;7101;51.600;7.310;2023-04-25T14:10:36;5.53;;;1.35;;
14052;SDS011;7101;51.600;7.310;2023-04-25T14:13:05;3.85;;;1.30;;
14052;SDS011;7101;51.600;7.310;2023-04-25T14:15:32;3.92;;;1.70;;
14052;SDS011;7101;51.600;7.310;2023-04-25T14:18:00;5.18;;;1.27;;
14052;SDS011;7101;51.600;7.310;2023-04-25T14:20:27;5.05;;;1.55;;
14052;SDS011;7101;51.600;7.310;2023-04-25T14:22:54;3.28;;;1.30;;
14052;SDS011;7101;51.600;7.310;2023-04-25T14:25:23;3.22;;;1.30;;
14052;SDS011;7101;51.600;7.310;2023-04-25T14:27:50;5.25;;;1.48;;
14052;SDS011;7101;51.600;7.310;2023-04-25T14:30:20;3.60;;;1.15;;
14052;SDS011;7101;51.600;7.310;2023-04-25T14:32:49;3.95;;;1.20;;
14052;SDS011;7101;51.600;7.310;2023-04-25T14:35:16;2.33;;;1.20;;
14052;SDS011;7101;51.600;7.310;2023-04-25T14:37:43;4.63;;;1.10;;
14052;SDS011;7101;51.600;7.310;2023-04-25T14:40:12;4.22;;;1.40;;
14052;SDS011;7101;51.600;7.310;2023-04-25T14:42:41;5.28;;;1.55;;
14052;SDS011;7101;51.600;7.310;2023-04-25T14:45:09;6.97;;;1.40;;
14052;SDS011;7101;51.600;7.310;2023-04-25T14:47:37;6.10;;;1.73;;
14052;SDS011;7101;51.600;7.310;2023-04-25T14:50:06;3.58;;;1.15;;
14052;SDS011;7101;51.600;7.310;2023-04-25T14:52:34;4.18;;;1.70;;
14052;SDS011;7101;51.600;7.310;2023-04-25T14:55:02;6.75;;;1.40;;
14052;SDS011;7101;51.600;7.310;2023-04-25T14:57:30;3.80;;;1.35;;
14052;SDS011;7101;51.600;7.310;2023-04-25T14:59:57;4.00;;;1.35;;
14052;SDS011;7101;51.600;7.310;2023-04-25T15:02:24;6.57;;;1.33;;